Akwesasne, New York
Current Conditions -  °F | °C
As of 12:53 AM on Sunday 26 Oct 2014 (Local Time) from KMSS Reporting Station
Light Rain Light Rain  
Wind Chill: 44°   Ceiling: 4600
Heat Index: 48°   Visibility: 10mi
Dew Point: 44°   Wind: 9mph
Humidity: 86%   Direction: 260°W
Pressure: 29.47"   Gusts: NA
Location:  44.9835°N, 74.6107°W
Report Text: KMSS 260453Z AUTO 26008KT 10SM -RA BKN046 BKN060 OVC080 09/07 A2947 RMK AO2 RAB02 SLP981 P0000 T00890067 401610028
Loading
Personal Weather Stations






























Interactive Weather Map
Tropical Storm Tracking
New forecast layout! Learn more

10-Day Weather Forecast

Advertisements
Track Severe Weather on mobile